createdAt,value
2022-09-05T00:03:46.040Z,100489.94
2022-09-05T00:08:00.497Z,100484.69
2022-09-05T00:12:08.477Z,100489.16
2022-09-05T00:16:34.212Z,100490.16
2022-09-05T00:24:29.349Z,100489.31
2022-09-05T00:25:36.579Z,100483.19
2022-09-05T00:31:08.675Z,100488.56
2022-09-05T00:34:43.491Z,100488.59
2022-09-05T00:38:58.597Z,100497.53
2022-09-05T00:43:06.814Z,100494.91
2022-09-05T00:47:23.330Z,100490.47
2022-09-05T00:51:35.606Z,100494.13
2022-09-05T00:55:48.976Z,100496.81
2022-09-05T01:00:06.456Z,100495.03
2022-09-05T01:04:33.512Z,100487.13
2022-09-05T01:08:53.177Z,100485.53
2022-09-05T01:13:16.451Z,100490.16
2022-09-05T01:17:32.871Z,100485.78
2022-09-05T01:21:55.863Z,100475.22
2022-09-05T01:26:18.238Z,100470.84
2022-09-05T01:30:29.690Z,100479.75
2022-09-05T01:34:44.974Z,100486.88
2022-09-05T01:40:15.411Z,100473.56
2022-09-05T01:43:30.238Z,100486.91
2022-09-05T01:47:47.375Z,100489.56
2022-09-05T01:52:11.260Z,100484.22
2022-09-05T01:56:31.199Z,100484.28
2022-09-05T02:00:44.307Z,100478.06
2022-09-05T02:05:20.703Z,100484.34
2022-09-05T02:10:07.261Z,100487.91
2022-09-05T02:14:29.788Z,100490.63
2022-09-05T02:18:53.643Z,100495.13
2022-09-05T02:23:04.643Z,100498.75
2022-09-05T02:28:04.615Z,100502.34
2022-09-05T02:32:10.255Z,100499.78
2022-09-05T02:36:23.143Z,100496.31
2022-09-05T02:45:08.055Z,100500.84
2022-09-05T02:45:26.569Z,100500.91
2022-09-05T02:53:31.682Z,100501.88
2022-09-05T02:57:43.492Z,100502.78
2022-09-05T02:59:09.260Z,100509.09
2022-09-05T03:03:27.865Z,100505.59
2022-09-05T03:07:47.861Z,100502.94
2022-09-05T03:12:29.231Z,100499.44
2022-09-05T03:17:06.296Z,100511.00
2022-09-05T03:21:42.078Z,100504.84
2022-09-05T03:26:10.092Z,100511.13
2022-09-05T03:30:16.610Z,100511.13
2022-09-05T03:34:42.772Z,100512.03
2022-09-05T03:39:24.413Z,100505.94
2022-09-05T03:43:53.309Z,100510.38
2022-09-05T03:48:36.732Z,100510.38
2022-09-05T03:57:14.630Z,100513.94
2022-09-05T03:57:42.593Z,100505.94
2022-09-05T04:04:33.828Z,100506.81
2022-09-05T04:08:17.178Z,100516.63
2022-09-05T04:10:54.858Z,100515.75
2022-09-05T04:15:03.352Z,100517.50
2022-09-05T04:19:12.647Z,100519.31
2022-09-05T04:23:27.075Z,100521.13
2022-09-05T04:27:39.388Z,100524.75
2022-09-05T04:32:17.683Z,100522.97
2022-09-05T04:36:25.348Z,100530.97
2022-09-05T04:40:39.530Z,100531.91
2022-09-05T04:44:47.748Z,100537.22
2022-09-05T04:49:03.358Z,100542.59
2022-09-05T04:53:19.496Z,100536.38
2022-09-05T04:57:30.941Z,100554.09
2022-09-05T05:06:00.449Z,100556.72
2022-09-05T05:06:38.129Z,100558.47
2022-09-05T05:11:06.179Z,100565.56
2022-09-05T05:18:10.901Z,100572.59
2022-09-05T05:19:36.783Z,100575.25
2022-09-05T05:23:42.987Z,100578.81
2022-09-05T05:28:01.229Z,100583.31
2022-09-05T05:32:33.223Z,100585.03
2022-09-05T05:36:51.681Z,100585.88
2022-09-05T05:41:02.383Z,100589.41
2022-09-05T05:45:18.112Z,100584.97
2022-09-05T05:49:32.112Z,100584.06
2022-09-05T05:53:52.204Z,100585.84
2022-09-05T05:58:18.461Z,100591.16
2022-09-05T06:03:25.475Z,100600.91
2022-09-05T06:09:58.841Z,100602.69
2022-09-05T06:14:58.261Z,100598.19
2022-09-05T06:17:31.878Z,100597.25
2022-09-05T06:22:10.020Z,100602.53
2022-09-05T06:26:49.365Z,100600.69
2022-09-05T06:31:28.999Z,100605.03
2022-09-05T06:35:45.092Z,100600.50
2022-09-05T06:40:14.105Z,100599.50
2022-09-05T06:44:40.427Z,100602.09
2022-09-05T06:49:31.273Z,100600.28
2022-09-05T06:53:40.036Z,100601.94
2022-09-05T06:58:32.512Z,100592.84
2022-09-05T07:03:00.170Z,100599.75
2022-09-05T07:07:12.007Z,100596.94
2022-09-05T07:11:23.802Z,100601.13
2022-09-05T07:15:38.528Z,100601.84
2022-09-05T07:19:50.893Z,100597.97
2022-09-05T07:24:09.021Z,100607.47
2022-09-05T07:28:29.373Z,100604.44
2022-09-05T07:32:40.895Z,100614.75
2022-09-05T07:36:48.266Z,100625.84
2022-09-05T07:40:58.176Z,100616.44
2022-09-05T07:45:08.538Z,100620.47
2022-09-05T07:49:16.163Z,100620.94
2022-09-05T07:56:51.145Z,100624.09
2022-09-05T07:57:52.189Z,100620.03
2022-09-05T08:01:57.448Z,100617.91
2022-09-05T08:06:05.452Z,100615.84
2022-09-05T08:10:15.515Z,100610.13
2022-09-05T08:14:45.374Z,100600.75
2022-09-05T08:18:53.335Z,100600.25
2022-09-05T08:23:03.430Z,100603.31
2022-09-05T08:27:16.722Z,100603.09
2022-09-05T08:31:26.751Z,100606.53
2022-09-05T08:35:34.759Z,100595.56
2022-09-05T08:39:38.180Z,100588.13
2022-09-05T08:46:39.336Z,100574.50
2022-09-05T08:48:22.490Z,100581.00
2022-09-05T08:52:35.024Z,100575.88
2022-09-05T08:56:46.330Z,100570.00
2022-09-05T09:01:00.215Z,100567.13
2022-09-05T09:05:15.274Z,100567.81
2022-09-05T09:09:26.643Z,100568.13
2022-09-05T09:13:42.179Z,100555.31
2022-09-05T09:17:47.518Z,100561.00
2022-09-05T09:22:06.280Z,100560.75
2022-09-05T09:26:15.879Z,100555.03
2022-09-05T09:30:20.818Z,100557.34
2022-09-05T09:34:47.155Z,100548.97
2022-09-05T09:39:37.647Z,100547.75
2022-09-05T09:43:58.384Z,100548.41
2022-09-05T09:48:39.795Z,100544.41
2022-09-05T09:53:13.104Z,100543.81
2022-09-05T09:58:01.302Z,100540.28
2022-09-05T10:03:49.985Z,100529.94
2022-09-05T10:10:51.118Z,100520.31
2022-09-05T10:12:40.538Z,100514.53
2022-09-05T10:17:14.748Z,100521.97
2022-09-05T10:21:40.891Z,100524.53
2022-09-05T10:26:13.268Z,100515.63
2022-09-05T10:31:17.415Z,100489.84
2022-09-05T10:35:16.921Z,100497.16
2022-09-05T10:39:26.331Z,100494.22
2022-09-05T10:43:31.643Z,100495.97
2022-09-05T10:47:40.844Z,100478.38
2022-09-05T10:51:52.075Z,100480.13
2022-09-05T10:56:07.905Z,100476.72
2022-09-05T11:02:19.304Z,100465.78
2022-09-05T11:05:07.668Z,100469.72
2022-09-05T11:09:19.564Z,100467.91
2022-09-05T11:13:39.629Z,100459.94
2022-09-05T11:17:49.840Z,100450.97
2022-09-05T11:22:10.381Z,100448.94
2022-09-05T11:26:39.179Z,100441.94
2022-09-05T11:30:49.030Z,100438.22
2022-09-05T11:40:00.587Z,100435.38
2022-09-05T11:40:39.141Z,100438.06
2022-09-05T11:45:26.693Z,100431.91
2022-09-05T11:50:03.578Z,100439.84
2022-09-05T11:54:50.309Z,100438.66
2022-09-05T11:59:15.135Z,100430.41
2022-09-05T12:04:10.053Z,100432.47
2022-09-05T12:08:29.052Z,100430.56
2022-09-05T12:12:41.116Z,100427.94
2022-09-05T12:16:50.840Z,100418.97
2022-09-05T12:21:04.594Z,100416.44
2022-09-05T12:27:43.217Z,100413.09
2022-09-05T12:30:07.886Z,100405.72
2022-09-05T12:36:11.850Z,100402.38
2022-09-05T12:40:52.005Z,100397.72
2022-09-05T12:44:22.932Z,100398.34
2022-09-05T12:47:56.631Z,100391.66
2022-09-05T12:52:04.994Z,100383.47
2022-09-05T12:59:41.804Z,100385.16
2022-09-05T13:03:13.812Z,100382.44
2022-09-05T13:05:15.211Z,100362.91
2022-09-05T13:09:23.978Z,100361.16
2022-09-05T13:15:00.899Z,100362.91
2022-09-05T13:18:15.324Z,100365.44
2022-09-05T13:22:23.011Z,100361.94
2022-09-05T13:26:36.441Z,100366.00
2022-09-05T13:34:44.429Z,100359.84
2022-09-05T13:38:13.700Z,100354.19
2022-09-05T13:39:54.083Z,100351.94
2022-09-05T13:44:26.881Z,100350.66
2022-09-05T13:53:14.745Z,100343.28
2022-09-05T13:57:38.215Z,100330.16
2022-09-05T14:02:24.681Z,100325.53
2022-09-05T14:06:47.068Z,100321.66
2022-09-05T14:11:11.888Z,100316.59
2022-09-05T14:15:37.956Z,100311.81
2022-09-05T14:20:00.295Z,100312.72
2022-09-05T14:24:14.520Z,100305.78
2022-09-05T14:28:22.903Z,100304.22
2022-09-05T14:37:42.354Z,100288.34
2022-09-05T14:37:43.566Z,100289.56
2022-09-05T14:42:35.778Z,100289.81
2022-09-05T14:46:54.001Z,100293.41
2022-09-05T14:51:26.029Z,100290.63
2022-09-05T14:55:29.897Z,100296.03
2022-09-05T15:02:53.850Z,100290.78
2022-09-05T15:12:16.709Z,100283.63
2022-09-05T15:13:00.541Z,100277.44
2022-09-05T15:17:06.933Z,100270.56
2022-09-05T15:21:33.097Z,100273.50
2022-09-05T15:25:45.884Z,100271.84
2022-09-05T15:29:56.355Z,100277.31
2022-09-05T15:34:21.102Z,100269.22
2022-09-05T15:38:30.914Z,100269.53
2022-09-05T15:42:39.111Z,100270.66
2022-09-05T15:46:49.408Z,100259.94
2022-09-05T15:50:56.674Z,100259.16
2022-09-05T15:55:03.543Z,100258.63
2022-09-05T15:59:10.208Z,100253.53
2022-09-05T16:06:28.687Z,100249.97
2022-09-05T16:10:42.219Z,100253.53
2022-09-05T16:12:31.066Z,100251.81
2022-09-05T16:21:13.003Z,100247.28
2022-09-05T16:23:30.678Z,100249.19
2022-09-05T16:25:34.578Z,100237.69
2022-09-05T16:29:43.087Z,100239.78
2022-09-05T16:33:48.208Z,100242.69
2022-09-05T16:37:54.245Z,100242.00
2022-09-05T16:42:04.971Z,100235.03
2022-09-05T16:46:11.669Z,100240.59
2022-09-05T16:50:22.904Z,100245.25
2022-09-05T16:54:32.123Z,100243.59
2022-09-05T16:58:40.242Z,100254.47
2022-09-05T17:02:49.444Z,100254.75
2022-09-05T17:06:56.635Z,100253.09
2022-09-05T17:11:12.209Z,100251.44
2022-09-05T17:15:34.958Z,100251.84
2022-09-05T17:19:40.364Z,100250.31
2022-09-05T17:28:30.028Z,100250.56
2022-09-05T17:29:26.823Z,100241.84
2022-09-05T17:33:19.179Z,100251.19
2022-09-05T17:37:47.475Z,100244.34
2022-09-05T17:42:13.459Z,100241.97
2022-09-05T17:46:21.403Z,100249.47
2022-09-05T17:50:51.245Z,100253.50
2022-09-05T17:54:56.660Z,100256.56
2022-09-05T17:59:06.098Z,100259.59
2022-09-05T18:03:09.387Z,100270.69
2022-09-05T18:07:53.555Z,100274.91
2022-09-05T18:12:13.996Z,100288.63
2022-09-05T18:16:37.236Z,100285.28
2022-09-05T18:21:22.028Z,100285.66
2022-09-05T18:25:33.574Z,100296.69
2022-09-05T18:29:57.431Z,100293.34
2022-09-05T18:34:47.828Z,100295.38
2022-09-05T18:39:29.533Z,100289.38
2022-09-05T18:43:42.412Z,100286.91
2022-09-05T18:48:10.969Z,100292.53
2022-09-05T18:52:22.176Z,100294.56
2022-09-05T18:56:33.541Z,100293.03
2022-09-05T19:00:46.712Z,100294.25
2022-09-05T19:04:53.629Z,100287.25
2022-09-05T19:09:01.654Z,100287.38
2022-09-05T19:13:13.581Z,100279.56
2022-09-05T19:17:31.517Z,100281.75
2022-09-05T19:21:35.822Z,100282.00
2022-09-05T19:25:42.940Z,100270.69
2022-09-05T19:36:49.283Z,100279.94
2022-09-05T19:37:04.776Z,100280.47
2022-09-05T19:40:38.809Z,100271.84
2022-09-05T19:47:35.381Z,100287.28
2022-09-05T19:52:16.637Z,100274.22
2022-09-05T19:56:20.808Z,100284.34
2022-09-05T20:00:26.439Z,100272.97
2022-09-05T20:04:34.658Z,100268.72
2022-09-05T20:08:40.359Z,100263.69
2022-09-05T20:12:43.631Z,100265.63
2022-09-05T20:16:49.550Z,100262.25
2022-09-05T20:20:57.012Z,100258.91
2022-09-05T20:25:02.076Z,100260.94
2022-09-05T20:29:09.709Z,100261.31
2022-09-05T20:33:19.747Z,100260.56
2022-09-05T20:43:09.820Z,100266.16
2022-09-05T20:43:35.428Z,100262.88
2022-09-05T20:48:57.382Z,100264.00
2022-09-05T20:54:15.840Z,100257.97
2022-09-05T20:55:39.870Z,100266.97
2022-09-05T21:00:00.348Z,100260.72
2022-09-05T21:04:08.707Z,100254.47
2022-09-05T21:08:34.868Z,100256.34
2022-09-05T21:12:47.780Z,100254.69
2022-09-05T21:17:06.940Z,100258.22
2022-09-05T21:21:32.840Z,100261.06
2022-09-05T21:25:53.000Z,100263.81
2022-09-05T21:30:05.157Z,100256.72
2022-09-05T21:34:20.602Z,100247.81
2022-09-05T21:38:35.171Z,100249.94
2022-09-05T21:47:34.990Z,100244.00
2022-09-05T21:47:40.771Z,100234.47
2022-09-05T21:52:17.137Z,100240.69
2022-09-05T21:59:29.387Z,100227.50
2022-09-05T22:00:54.023Z,100232.94
2022-09-05T22:10:07.778Z,100239.81
2022-09-05T22:37:29.814Z,100221.78
2022-09-05T22:48:17.755Z,100208.09
2022-09-05T22:53:30.552Z,100211.06
